sensor_id;sensor_type;location;lat;lon;timestamp;P1;durP1;ratioP1;P2;durP2;ratioP2
55931;SDS011;41837;55.700;37.984;2022-09-17T00:01:42;39.70;;;23.33;;
55931;SDS011;41837;55.700;37.984;2022-09-17T00:04:08;41.97;;;24.27;;
55931;SDS011;41837;55.700;37.984;2022-09-17T00:06:35;39.90;;;22.95;;
55931;SDS011;41837;55.700;37.984;2022-09-17T00:09:02;34.53;;;21.17;;
55931;SDS011;41837;55.700;37.984;2022-09-17T00:11:29;38.72;;;21.67;;
55931;SDS011;41837;55.700;37.984;2022-09-17T00:13:57;35.50;;;21.23;;
55931;SDS011;41837;55.700;37.984;2022-09-17T00:16:31;39.03;;;23.67;;
55931;SDS011;41837;55.700;37.984;2022-09-17T00:18:57;47.67;;;26.27;;
55931;SDS011;41837;55.700;37.984;2022-09-17T00:21:23;48.63;;;25.20;;
55931;SDS011;41837;55.700;37.984;2022-09-17T00:23:57;52.78;;;27.42;;
55931;SDS011;41837;55.700;37.984;2022-09-17T00:26:24;49.65;;;27.60;;
55931;SDS011;41837;55.700;37.984;2022-09-17T00:28:50;53.05;;;27.55;;
55931;SDS011;41837;55.700;37.984;2022-09-17T00:31:16;60.33;;;29.35;;
55931;SDS011;41837;55.700;37.984;2022-09-17T00:33:42;62.90;;;32.33;;
55931;SDS011;41837;55.700;37.984;2022-09-17T00:36:08;69.07;;;32.67;;
55931;SDS011;41837;55.700;37.984;2022-09-17T00:38:34;59.67;;;30.48;;
55931;SDS011;41837;55.700;37.984;2022-09-17T00:41:00;53.30;;;28.15;;
55931;SDS011;41837;55.700;37.984;2022-09-17T00:45:58;65.72;;;32.35;;
55931;SDS011;41837;55.700;37.984;2022-09-17T00:48:23;54.58;;;29.33;;
55931;SDS011;41837;55.700;37.984;2022-09-17T00:50:49;59.00;;;29.75;;
55931;SDS011;41837;55.700;37.984;2022-09-17T00:53:17;58.55;;;31.17;;
55931;SDS011;41837;55.700;37.984;2022-09-17T00:55:46;68.82;;;33.92;;
55931;SDS011;41837;55.700;37.984;2022-09-17T00:58:13;67.63;;;33.25;;
55931;SDS011;41837;55.700;37.984;2022-09-17T01:00:41;58.75;;;28.90;;
55931;SDS011;41837;55.700;37.984;2022-09-17T01:03:06;55.97;;;28.48;;
55931;SDS011;41837;55.700;37.984;2022-09-17T01:05:41;50.55;;;26.02;;
55931;SDS011;41837;55.700;37.984;2022-09-17T01:13:15;57.72;;;28.55;;
55931;SDS011;41837;55.700;37.984;2022-09-17T01:15:50;61.05;;;30.75;;
55931;SDS011;41837;55.700;37.984;2022-09-17T01:23:39;72.97;;;32.13;;
55931;SDS011;41837;55.700;37.984;2022-09-17T01:34:10;77.53;;;33.60;;
55931;SDS011;41837;55.700;37.984;2022-09-17T01:39:29;72.43;;;32.35;;
55931;SDS011;41837;55.700;37.984;2022-09-17T01:44:28;88.20;;;37.33;;
55931;SDS011;41837;55.700;37.984;2022-09-17T01:49:54;83.88;;;37.45;;
55931;SDS011;41837;55.700;37.984;2022-09-17T01:52:21;90.60;;;41.28;;
55931;SDS011;41837;55.700;37.984;2022-09-17T01:54:50;71.82;;;35.88;;
55931;SDS011;41837;55.700;37.984;2022-09-17T01:59:48;81.57;;;36.65;;
55931;SDS011;41837;55.700;37.984;2022-09-17T02:07:55;67.83;;;32.83;;
55931;SDS011;41837;55.700;37.984;2022-09-17T02:10:24;61.67;;;30.30;;
55931;SDS011;41837;55.700;37.984;2022-09-17T02:12:56;75.70;;;34.65;;
55931;SDS011;41837;55.700;37.984;2022-09-17T02:15:27;66.07;;;31.92;;
55931;SDS011;41837;55.700;37.984;2022-09-17T02:18:18;72.40;;;32.90;;
55931;SDS011;41837;55.700;37.984;2022-09-17T02:20:42;85.70;;;39.03;;
55931;SDS011;41837;55.700;37.984;2022-09-17T02:23:11;92.43;;;41.08;;
55931;SDS011;41837;55.700;37.984;2022-09-17T02:25:41;99.75;;;44.53;;
55931;SDS011;41837;55.700;37.984;2022-09-17T02:30:45;97.10;;;42.40;;
55931;SDS011;41837;55.700;37.984;2022-09-17T02:33:11;87.07;;;38.13;;
55931;SDS011;41837;55.700;37.984;2022-09-17T02:35:38;89.28;;;38.20;;
55931;SDS011;41837;55.700;37.984;2022-09-17T02:38:04;84.22;;;39.03;;
55931;SDS011;41837;55.700;37.984;2022-09-17T02:40:31;90.93;;;39.90;;
55931;SDS011;41837;55.700;37.984;2022-09-17T02:53:29;238.05;;;132.75;;
55931;SDS011;41837;55.700;37.984;2022-09-17T02:56:01;243.23;;;138.25;;
55931;SDS011;41837;55.700;37.984;2022-09-17T02:58:36;248.68;;;129.00;;
55931;SDS011;41837;55.700;37.984;2022-09-17T03:01:03;356.27;;;197.15;;
55931;SDS011;41837;55.700;37.984;2022-09-17T03:03:38;325.10;;;185.82;;
55931;SDS011;41837;55.700;37.984;2022-09-17T03:06:05;232.98;;;129.93;;
55931;SDS011;41837;55.700;37.984;2022-09-17T03:08:33;184.65;;;108.47;;
55931;SDS011;41837;55.700;37.984;2022-09-17T03:11:00;170.27;;;99.95;;
55931;SDS011;41837;55.700;37.984;2022-09-17T03:13:26;189.52;;;109.70;;
55931;SDS011;41837;55.700;37.984;2022-09-17T03:15:52;244.60;;;133.05;;
55931;SDS011;41837;55.700;37.984;2022-09-17T03:18:18;200.93;;;118.47;;
55931;SDS011;41837;55.700;37.984;2022-09-17T03:20:44;141.63;;;82.95;;
55931;SDS011;41837;55.700;37.984;2022-09-17T03:23:10;91.20;;;51.42;;
55931;SDS011;41837;55.700;37.984;2022-09-17T03:25:36;58.25;;;34.40;;
55931;SDS011;41837;55.700;37.984;2022-09-17T03:28:02;46.47;;;27.17;;
55931;SDS011;41837;55.700;37.984;2022-09-17T03:30:28;38.40;;;24.40;;
55931;SDS011;41837;55.700;37.984;2022-09-17T03:32:53;45.35;;;25.25;;
55931;SDS011;41837;55.700;37.984;2022-09-17T03:35:19;39.90;;;24.90;;
55931;SDS011;41837;55.700;37.984;2022-09-17T03:37:45;56.30;;;32.25;;
55931;SDS011;41837;55.700;37.984;2022-09-17T03:40:11;58.67;;;34.55;;
55931;SDS011;41837;55.700;37.984;2022-09-17T03:42:37;59.35;;;35.78;;
55931;SDS011;41837;55.700;37.984;2022-09-17T03:45:03;60.75;;;37.35;;
55931;SDS011;41837;55.700;37.984;2022-09-17T03:47:29;52.38;;;32.22;;
55931;SDS011;41837;55.700;37.984;2022-09-17T03:49:55;48.35;;;29.85;;
55931;SDS011;41837;55.700;37.984;2022-09-17T03:52:21;46.60;;;26.85;;
55931;SDS011;41837;55.700;37.984;2022-09-17T03:54:47;33.53;;;22.00;;
55931;SDS011;41837;55.700;37.984;2022-09-17T03:57:13;25.23;;;17.42;;
55931;SDS011;41837;55.700;37.984;2022-09-17T03:59:39;20.23;;;13.23;;
55931;SDS011;41837;55.700;37.984;2022-09-17T04:02:05;15.10;;;9.25;;
55931;SDS011;41837;55.700;37.984;2022-09-17T04:04:31;13.40;;;7.78;;
55931;SDS011;41837;55.700;37.984;2022-09-17T04:06:56;14.75;;;7.55;;
55931;SDS011;41837;55.700;37.984;2022-09-17T04:09:22;10.90;;;6.80;;
55931;SDS011;41837;55.700;37.984;2022-09-17T04:11:48;9.15;;;6.55;;
55931;SDS011;41837;55.700;37.984;2022-09-17T04:14:14;13.35;;;7.05;;
55931;SDS011;41837;55.700;37.984;2022-09-17T04:16:40;8.95;;;6.53;;
55931;SDS011;41837;55.700;37.984;2022-09-17T04:19:06;12.07;;;6.30;;
55931;SDS011;41837;55.700;37.984;2022-09-17T04:21:32;10.48;;;6.05;;
55931;SDS011;41837;55.700;37.984;2022-09-17T04:23:58;12.68;;;6.28;;
55931;SDS011;41837;55.700;37.984;2022-09-17T04:26:24;8.30;;;5.22;;
55931;SDS011;41837;55.700;37.984;2022-09-17T04:28:50;7.45;;;4.70;;
55931;SDS011;41837;55.700;37.984;2022-09-17T04:31:16;13.95;;;4.60;;
55931;SDS011;41837;55.700;37.984;2022-09-17T04:33:42;8.85;;;5.13;;
55931;SDS011;41837;55.700;37.984;2022-09-17T04:36:07;10.25;;;4.90;;
55931;SDS011;41837;55.700;37.984;2022-09-17T04:38:34;10.18;;;5.45;;
55931;SDS011;41837;55.700;37.984;2022-09-17T04:41:00;11.88;;;4.80;;
55931;SDS011;41837;55.700;37.984;2022-09-17T04:43:26;8.10;;;4.97;;
55931;SDS011;41837;55.700;37.984;2022-09-17T04:45:52;10.35;;;4.72;;
55931;SDS011;41837;55.700;37.984;2022-09-17T04:48:18;8.75;;;4.50;;
55931;SDS011;41837;55.700;37.984;2022-09-17T04:50:43;10.57;;;4.40;;
55931;SDS011;41837;55.700;37.984;2022-09-17T04:53:09;8.40;;;4.30;;
55931;SDS011;41837;55.700;37.984;2022-09-17T04:55:35;8.38;;;4.20;;
55931;SDS011;41837;55.700;37.984;2022-09-17T04:58:01;6.75;;;4.20;;
55931;SDS011;41837;55.700;37.984;2022-09-17T05:00:27;8.95;;;4.47;;
55931;SDS011;41837;55.700;37.984;2022-09-17T05:02:54;11.23;;;4.38;;
55931;SDS011;41837;55.700;37.984;2022-09-17T05:05:19;7.18;;;4.35;;
55931;SDS011;41837;55.700;37.984;2022-09-17T05:07:47;6.25;;;4.38;;
55931;SDS011;41837;55.700;37.984;2022-09-17T05:10:13;10.43;;;4.68;;
55931;SDS011;41837;55.700;37.984;2022-09-17T05:12:40;6.88;;;4.65;;
55931;SDS011;41837;55.700;37.984;2022-09-17T05:15:06;11.40;;;4.22;;
55931;SDS011;41837;55.700;37.984;2022-09-17T05:17:32;7.60;;;4.20;;
55931;SDS011;41837;55.700;37.984;2022-09-17T05:19:58;9.65;;;4.25;;
55931;SDS011;41837;55.700;37.984;2022-09-17T05:22:24;7.20;;;4.35;;
55931;SDS011;41837;55.700;37.984;2022-09-17T05:24:50;7.60;;;4.18;;
55931;SDS011;41837;55.700;37.984;2022-09-17T05:27:16;6.53;;;3.80;;
55931;SDS011;41837;55.700;37.984;2022-09-17T05:29:42;10.07;;;4.32;;
55931;SDS011;41837;55.700;37.984;2022-09-17T05:32:10;6.82;;;3.95;;
55931;SDS011;41837;55.700;37.984;2022-09-17T05:34:35;8.63;;;3.97;;
55931;SDS011;41837;55.700;37.984;2022-09-17T05:37:02;10.20;;;4.40;;
55931;SDS011;41837;55.700;37.984;2022-09-17T05:39:28;8.25;;;4.10;;
55931;SDS011;41837;55.700;37.984;2022-09-17T05:41:54;8.70;;;4.20;;
55931;SDS011;41837;55.700;37.984;2022-09-17T05:44:20;11.02;;;4.20;;
55931;SDS011;41837;55.700;37.984;2022-09-17T05:46:46;7.90;;;4.85;;
55931;SDS011;41837;55.700;37.984;2022-09-17T05:49:13;9.68;;;4.10;;
55931;SDS011;41837;55.700;37.984;2022-09-17T05:51:40;12.55;;;4.38;;
55931;SDS011;41837;55.700;37.984;2022-09-17T05:54:06;10.60;;;4.68;;
55931;SDS011;41837;55.700;37.984;2022-09-17T05:56:32;9.20;;;3.70;;
55931;SDS011;41837;55.700;37.984;2022-09-17T05:58:58;12.88;;;4.60;;
55931;SDS011;41837;55.700;37.984;2022-09-17T06:01:24;8.63;;;4.20;;
55931;SDS011;41837;55.700;37.984;2022-09-17T06:03:50;7.07;;;4.15;;
55931;SDS011;41837;55.700;37.984;2022-09-17T06:06:16;7.82;;;3.90;;
55931;SDS011;41837;55.700;37.984;2022-09-17T06:08:42;9.13;;;4.43;;
55931;SDS011;41837;55.700;37.984;2022-09-17T06:11:08;8.30;;;4.50;;
55931;SDS011;41837;55.700;37.984;2022-09-17T06:13:34;8.70;;;4.47;;
55931;SDS011;41837;55.700;37.984;2022-09-17T06:16:01;15.70;;;4.85;;
55931;SDS011;41837;55.700;37.984;2022-09-17T06:18:27;6.57;;;4.20;;
55931;SDS011;41837;55.700;37.984;2022-09-17T06:23:20;7.40;;;4.15;;
55931;SDS011;41837;55.700;37.984;2022-09-17T06:25:51;8.52;;;4.18;;
55931;SDS011;41837;55.700;37.984;2022-09-17T06:28:17;8.75;;;4.32;;
55931;SDS011;41837;55.700;37.984;2022-09-17T06:30:43;8.10;;;4.50;;
55931;SDS011;41837;55.700;37.984;2022-09-17T06:33:09;6.43;;;3.90;;
55931;SDS011;41837;55.700;37.984;2022-09-17T06:35:35;8.55;;;4.43;;
55931;SDS011;41837;55.700;37.984;2022-09-17T06:38:04;9.48;;;5.50;;
55931;SDS011;41837;55.700;37.984;2022-09-17T06:40:30;7.95;;;4.78;;
55931;SDS011;41837;55.700;37.984;2022-09-17T06:42:56;15.05;;;5.88;;
55931;SDS011;41837;55.700;37.984;2022-09-17T06:45:24;9.65;;;4.97;;
55931;SDS011;41837;55.700;37.984;2022-09-17T06:47:50;9.07;;;4.13;;
55931;SDS011;41837;55.700;37.984;2022-09-17T06:50:16;10.40;;;4.90;;
55931;SDS011;41837;55.700;37.984;2022-09-17T06:52:48;11.50;;;4.65;;
55931;SDS011;41837;55.700;37.984;2022-09-17T06:55:15;5.88;;;4.38;;
55931;SDS011;41837;55.700;37.984;2022-09-17T06:57:41;9.27;;;4.35;;
55931;SDS011;41837;55.700;37.984;2022-09-17T07:00:09;10.73;;;5.35;;
55931;SDS011;41837;55.700;37.984;2022-09-17T07:02:35;9.05;;;4.20;;
55931;SDS011;41837;55.700;37.984;2022-09-17T07:05:01;10.80;;;3.97;;
55931;SDS011;41837;55.700;37.984;2022-09-17T07:07:28;10.25;;;4.13;;
55931;SDS011;41837;55.700;37.984;2022-09-17T07:09:54;8.82;;;3.50;;
55931;SDS011;41837;55.700;37.984;2022-09-17T07:12:20;11.68;;;4.00;;
55931;SDS011;41837;55.700;37.984;2022-09-17T07:14:48;10.05;;;3.72;;
55931;SDS011;41837;55.700;37.984;2022-09-17T07:17:14;12.82;;;6.40;;
55931;SDS011;41837;55.700;37.984;2022-09-17T07:19:40;8.40;;;3.47;;
55931;SDS011;41837;55.700;37.984;2022-09-17T07:22:06;13.63;;;3.60;;
55931;SDS011;41837;55.700;37.984;2022-09-17T07:24:32;10.90;;;4.15;;
55931;SDS011;41837;55.700;37.984;2022-09-17T07:26:59;9.30;;;3.30;;
55931;SDS011;41837;55.700;37.984;2022-09-17T07:29:25;11.60;;;3.50;;
55931;SDS011;41837;55.700;37.984;2022-09-17T07:31:52;11.25;;;3.67;;
55931;SDS011;41837;55.700;37.984;2022-09-17T07:34:18;14.15;;;3.50;;
55931;SDS011;41837;55.700;37.984;2022-09-17T07:36:44;13.73;;;3.53;;
55931;SDS011;41837;55.700;37.984;2022-09-17T07:39:10;9.82;;;3.63;;
55931;SDS011;41837;55.700;37.984;2022-09-17T07:41:40;9.07;;;3.22;;
55931;SDS011;41837;55.700;37.984;2022-09-17T07:44:06;10.75;;;3.25;;
55931;SDS011;41837;55.700;37.984;2022-09-17T07:46:32;14.25;;;3.63;;
55931;SDS011;41837;55.700;37.984;2022-09-17T07:48:58;17.08;;;3.83;;
55931;SDS011;41837;55.700;37.984;2022-09-17T07:51:24;7.40;;;2.70;;
55931;SDS011;41837;55.700;37.984;2022-09-17T07:53:53;8.15;;;2.50;;
55931;SDS011;41837;55.700;37.984;2022-09-17T07:56:20;8.70;;;2.60;;
55931;SDS011;41837;55.700;37.984;2022-09-17T07:58:46;13.02;;;2.60;;
55931;SDS011;41837;55.700;37.984;2022-09-17T08:01:12;13.02;;;2.95;;
55931;SDS011;41837;55.700;37.984;2022-09-17T08:03:40;9.30;;;2.80;;
55931;SDS011;41837;55.700;37.984;2022-09-17T08:06:07;8.57;;;2.60;;
55931;SDS011;41837;55.700;37.984;2022-09-17T08:08:34;10.65;;;2.08;;
55931;SDS011;41837;55.700;37.984;2022-09-17T08:11:04;17.30;;;7.57;;
55931;SDS011;41837;55.700;37.984;2022-09-17T08:13:30;7.05;;;1.73;;
55931;SDS011;41837;55.700;37.984;2022-09-17T08:15:57;10.88;;;2.10;;
55931;SDS011;41837;55.700;37.984;2022-09-17T08:18:24;19.80;;;1.90;;
55931;SDS011;41837;55.700;37.984;2022-09-17T08:20:50;11.93;;;1.90;;
55931;SDS011;41837;55.700;37.984;2022-09-17T08:23:16;13.73;;;1.98;;
55931;SDS011;41837;55.700;37.984;2022-09-17T08:25:42;8.45;;;1.90;;
55931;SDS011;41837;55.700;37.984;2022-09-17T08:28:08;10.13;;;2.08;;
55931;SDS011;41837;55.700;37.984;2022-09-17T08:30:34;23.33;;;2.67;;
55931;SDS011;41837;55.700;37.984;2022-09-17T08:33:00;12.07;;;1.88;;
55931;SDS011;41837;55.700;37.984;2022-09-17T08:35:26;18.30;;;2.72;;
55931;SDS011;41837;55.700;37.984;2022-09-17T08:37:55;10.68;;;2.83;;
55931;SDS011;41837;55.700;37.984;2022-09-17T08:40:21;17.38;;;2.47;;
55931;SDS011;41837;55.700;37.984;2022-09-17T08:42:53;11.10;;;2.05;;
55931;SDS011;41837;55.700;37.984;2022-09-17T08:45:22;12.48;;;1.77;;
55931;SDS011;41837;55.700;37.984;2022-09-17T08:47:48;6.80;;;1.63;;
55931;SDS011;41837;55.700;37.984;2022-09-17T08:50:36;6.50;;;1.50;;
55931;SDS011;41837;55.700;37.984;2022-09-17T09:05:55;5.55;;;1.40;;
55931;SDS011;41837;55.700;37.984;2022-09-17T09:11:01;9.25;;;1.52;;
55931;SDS011;41837;55.700;37.984;2022-09-17T09:13:46;9.93;;;1.60;;
55931;SDS011;41837;55.700;37.984;2022-09-17T09:16:21;16.88;;;1.85;;
55931;SDS011;41837;55.700;37.984;2022-09-17T09:21:25;16.23;;;2.10;;
55931;SDS011;41837;55.700;37.984;2022-09-17T09:24:06;8.30;;;1.75;;
55931;SDS011;41837;55.700;37.984;2022-09-17T09:29:06;43.20;;;2.88;;
55931;SDS011;41837;55.700;37.984;2022-09-17T09:34:02;11.68;;;1.63;;
55931;SDS011;41837;55.700;37.984;2022-09-17T09:36:29;9.50;;;1.85;;
55931;SDS011;41837;55.700;37.984;2022-09-17T09:38:58;11.68;;;1.52;;
55931;SDS011;41837;55.700;37.984;2022-09-17T09:41:48;7.88;;;1.60;;
55931;SDS011;41837;55.700;37.984;2022-09-17T09:44:14;7.93;;;1.30;;
55931;SDS011;41837;55.700;37.984;2022-09-17T09:49:19;5.65;;;1.73;;
55931;SDS011;41837;55.700;37.984;2022-09-17T09:57:09;11.93;;;1.90;;
55931;SDS011;41837;55.700;37.984;2022-09-17T09:59:37;7.57;;;1.90;;
55931;SDS011;41837;55.700;37.984;2022-09-17T10:02:03;15.60;;;1.60;;
55931;SDS011;41837;55.700;37.984;2022-09-17T10:04:29;46.72;;;5.88;;
55931;SDS011;41837;55.700;37.984;2022-09-17T10:07:00;12.27;;;3.17;;
55931;SDS011;41837;55.700;37.984;2022-09-17T10:09:27;21.15;;;2.45;;
55931;SDS011;41837;55.700;37.984;2022-09-17T10:12:04;14.27;;;2.17;;
55931;SDS011;41837;55.700;37.984;2022-09-17T10:14:32;10.02;;;1.00;;
55931;SDS011;41837;55.700;37.984;2022-09-17T10:17:09;14.77;;;2.03;;
55931;SDS011;41837;55.700;37.984;2022-09-17T10:19:39;8.50;;;1.55;;
55931;SDS011;41837;55.700;37.984;2022-09-17T10:24:48;9.95;;;0.93;;
55931;SDS011;41837;55.700;37.984;2022-09-17T10:27:16;10.15;;;1.40;;
55931;SDS011;41837;55.700;37.984;2022-09-17T10:29:43;20.55;;;1.50;;
55931;SDS011;41837;55.700;37.984;2022-09-17T10:32:20;12.38;;;1.10;;
55931;SDS011;41837;55.700;37.984;2022-09-17T10:34:58;13.00;;;1.15;;
55931;SDS011;41837;55.700;37.984;2022-09-17T10:37:31;5.38;;;1.00;;
55931;SDS011;41837;55.700;37.984;2022-09-17T10:39:59;7.22;;;1.50;;
55931;SDS011;41837;55.700;37.984;2022-09-17T10:42:25;3.83;;;1.58;;
55931;SDS011;41837;55.700;37.984;2022-09-17T10:44:52;7.90;;;2.72;;
55931;SDS011;41837;55.700;37.984;2022-09-17T10:49:56;10.88;;;2.03;;
55931;SDS011;41837;55.700;37.984;2022-09-17T10:52:26;5.57;;;1.15;;
55931;SDS011;41837;55.700;37.984;2022-09-17T11:00:11;12.05;;;1.63;;
55931;SDS011;41837;55.700;37.984;2022-09-17T11:07:51;7.53;;;1.40;;
55931;SDS011;41837;55.700;37.984;2022-09-17T11:10:24;40.85;;;2.38;;
55931;SDS011;41837;55.700;37.984;2022-09-17T11:13:00;10.35;;;1.67;;
55931;SDS011;41837;55.700;37.984;2022-09-17T11:26:15;11.63;;;1.40;;
55931;SDS011;41837;55.700;37.984;2022-09-17T11:28:56;4.38;;;1.42;;
55931;SDS011;41837;55.700;37.984;2022-09-17T11:31:41;9.60;;;2.05;;
55931;SDS011;41837;55.700;37.984;2022-09-17T11:34:19;7.18;;;1.95;;
55931;SDS011;41837;55.700;37.984;2022-09-17T11:39:13;14.48;;;1.73;;
55931;SDS011;41837;55.700;37.984;2022-09-17T11:41:41;8.80;;;1.60;;
55931;SDS011;41837;55.700;37.984;2022-09-17T11:49:10;10.68;;;1.40;;
55931;SDS011;41837;55.700;37.984;2022-09-17T11:51:38;7.70;;;2.05;;
55931;SDS011;41837;55.700;37.984;2022-09-17T11:54:18;12.27;;;1.95;;
55931;SDS011;41837;55.700;37.984;2022-09-17T11:57:05;17.40;;;1.95;;
55931;SDS011;41837;55.700;37.984;2022-09-17T12:02:22;16.40;;;2.08;;
55931;SDS011;41837;55.700;37.984;2022-09-17T12:04:54;5.15;;;1.50;;
55931;SDS011;41837;55.700;37.984;2022-09-17T12:10:15;8.55;;;1.20;;
55931;SDS011;41837;55.700;37.984;2022-09-17T12:12:46;50.28;;;2.42;;
55931;SDS011;41837;55.700;37.984;2022-09-17T12:15:17;9.48;;;1.10;;
55931;SDS011;41837;55.700;37.984;2022-09-17T12:20:31;6.55;;;1.63;;
55931;SDS011;41837;55.700;37.984;2022-09-17T12:22:58;8.80;;;1.30;;
55931;SDS011;41837;55.700;37.984;2022-09-17T12:25:31;9.98;;;1.88;;
55931;SDS011;41837;55.700;37.984;2022-09-17T12:28:11;9.68;;;1.45;;
55931;SDS011;41837;55.700;37.984;2022-09-17T12:30:58;8.77;;;1.67;;
55931;SDS011;41837;55.700;37.984;2022-09-17T12:33:32;9.00;;;1.95;;
55931;SDS011;41837;55.700;37.984;2022-09-17T12:41:13;9.23;;;1.50;;
55931;SDS011;41837;55.700;37.984;2022-09-17T12:43:54;10.55;;;1.55;;
55931;SDS011;41837;55.700;37.984;2022-09-17T13:00:01;8.40;;;3.55;;
55931;SDS011;41837;55.700;37.984;2022-09-17T13:13:26;11.43;;;2.45;;
55931;SDS011;41837;55.700;37.984;2022-09-17T13:18:38;7.13;;;1.70;;
55931;SDS011;41837;55.700;37.984;2022-09-17T13:21:10;8.23;;;2.05;;
55931;SDS011;41837;55.700;37.984;2022-09-17T13:23:45;22.55;;;2.60;;
55931;SDS011;41837;55.700;37.984;2022-09-17T13:26:13;11.43;;;1.90;;
55931;SDS011;41837;55.700;37.984;2022-09-17T13:28:44;11.82;;;2.67;;
55931;SDS011;41837;55.700;37.984;2022-09-17T13:31:10;6.57;;;2.00;;
55931;SDS011;41837;55.700;37.984;2022-09-17T13:38:56;12.27;;;1.65;;
55931;SDS011;41837;55.700;37.984;2022-09-17T13:41:22;8.95;;;1.60;;
55931;SDS011;41837;55.700;37.984;2022-09-17T13:43:49;8.13;;;1.48;;
55931;SDS011;41837;55.700;37.984;2022-09-17T13:46:22;10.50;;;2.85;;
55931;SDS011;41837;55.700;37.984;2022-09-17T13:48:50;17.15;;;3.60;;
55931;SDS011;41837;55.700;37.984;2022-09-17T13:53:56;7.05;;;1.67;;
55931;SDS011;41837;55.700;37.984;2022-09-17T13:56:33;10.35;;;2.40;;
55931;SDS011;41837;55.700;37.984;2022-09-17T13:59:20;11.70;;;1.70;;
55931;SDS011;41837;55.700;37.984;2022-09-17T14:02:10;4.57;;;1.90;;
55931;SDS011;41837;55.700;37.984;2022-09-17T14:04:49;16.77;;;2.00;;
55931;SDS011;41837;55.700;37.984;2022-09-17T14:17:58;12.93;;;2.40;;
55931;SDS011;41837;55.700;37.984;2022-09-17T14:20:24;12.82;;;3.80;;
55931;SDS011;41837;55.700;37.984;2022-09-17T14:22:58;11.05;;;3.97;;
55931;SDS011;41837;55.700;37.984;2022-09-17T14:25:45;11.00;;;4.30;;
55931;SDS011;41837;55.700;37.984;2022-09-17T14:28:57;16.50;;;4.25;;
55931;SDS011;41837;55.700;37.984;2022-09-17T14:31:05;9.77;;;2.90;;
55931;SDS011;41837;55.700;37.984;2022-09-17T14:33:34;12.45;;;3.97;;
55931;SDS011;41837;55.700;37.984;2022-09-17T14:36:10;9.48;;;3.50;;
55931;SDS011;41837;55.700;37.984;2022-09-17T14:41:05;11.93;;;3.75;;
55931;SDS011;41837;55.700;37.984;2022-09-17T14:45:58;13.27;;;4.28;;
55931;SDS011;41837;55.700;37.984;2022-09-17T14:48:31;12.80;;;3.53;;
55931;SDS011;41837;55.700;37.984;2022-09-17T14:53:45;7.00;;;3.05;;
55931;SDS011;41837;55.700;37.984;2022-09-17T14:56:12;13.43;;;2.70;;
55931;SDS011;41837;55.700;37.984;2022-09-17T14:58:39;13.38;;;2.63;;
55931;SDS011;41837;55.700;37.984;2022-09-17T15:01:12;13.50;;;2.45;;
55931;SDS011;41837;55.700;37.984;2022-09-17T15:03:45;8.10;;;3.33;;
55931;SDS011;41837;55.700;37.984;2022-09-17T15:06:20;11.25;;;3.35;;
55931;SDS011;41837;55.700;37.984;2022-09-17T15:08:46;12.45;;;2.95;;
55931;SDS011;41837;55.700;37.984;2022-09-17T15:11:14;20.15;;;3.38;;
55931;SDS011;41837;55.700;37.984;2022-09-17T15:13:46;16.98;;;6.72;;
55931;SDS011;41837;55.700;37.984;2022-09-17T15:16:22;30.38;;;15.63;;
55931;SDS011;41837;55.700;37.984;2022-09-17T15:18:53;33.63;;;15.75;;
55931;SDS011;41837;55.700;37.984;2022-09-17T15:21:32;154.15;;;103.38;;
55931;SDS011;41837;55.700;37.984;2022-09-17T15:24:02;68.80;;;43.03;;
55931;SDS011;41837;55.700;37.984;2022-09-17T15:26:34;21.83;;;11.90;;
55931;SDS011;41837;55.700;37.984;2022-09-17T15:29:01;799.85;;;646.97;;
55931;SDS011;41837;55.700;37.984;2022-09-17T15:31:28;90.53;;;60.80;;
55931;SDS011;41837;55.700;37.984;2022-09-17T15:33:57;16.48;;;4.30;;
55931;SDS011;41837;55.700;37.984;2022-09-17T15:36:24;36.42;;;19.73;;
55931;SDS011;41837;55.700;37.984;2022-09-17T15:38:52;443.23;;;321.60;;
55931;SDS011;41837;55.700;37.984;2022-09-17T15:41:34;939.50;;;742.03;;
55931;SDS011;41837;55.700;37.984;2022-09-17T15:44:05;704.72;;;556.95;;
55931;SDS011;41837;55.700;37.984;2022-09-17T15:46:32;113.97;;;72.22;;
55931;SDS011;41837;55.700;37.984;2022-09-17T15:49:02;22.00;;;9.57;;
55931;SDS011;41837;55.700;37.984;2022-09-17T15:51:35;12.35;;;4.55;;
55931;SDS011;41837;55.700;37.984;2022-09-17T15:54:04;8.05;;;4.20;;
55931;SDS011;41837;55.700;37.984;2022-09-17T15:56:32;14.02;;;5.55;;
55931;SDS011;41837;55.700;37.984;2022-09-17T16:08:47;12.90;;;6.90;;
55931;SDS011;41837;55.700;37.984;2022-09-17T16:11:13;9.90;;;4.00;;
55931;SDS011;41837;55.700;37.984;2022-09-17T16:13:39;10.50;;;6.30;;
55931;SDS011;41837;55.700;37.984;2022-09-17T16:16:05;31.33;;;10.23;;
55931;SDS011;41837;55.700;37.984;2022-09-17T16:18:31;20.05;;;7.38;;
55931;SDS011;41837;55.700;37.984;2022-09-17T16:20:57;50.50;;;17.08;;
55931;SDS011;41837;55.700;37.984;2022-09-17T16:23:23;29.75;;;10.82;;
55931;SDS011;41837;55.700;37.984;2022-09-17T16:25:50;39.50;;;15.88;;
55931;SDS011;41837;55.700;37.984;2022-09-17T16:28:18;25.50;;;8.52;;
55931;SDS011;41837;55.700;37.984;2022-09-17T16:30:44;19.80;;;10.60;;
55931;SDS011;41837;55.700;37.984;2022-09-17T16:33:12;26.40;;;14.88;;
55931;SDS011;41837;55.700;37.984;2022-09-17T16:35:39;23.75;;;14.48;;
55931;SDS011;41837;55.700;37.984;2022-09-17T16:38:05;30.48;;;16.65;;
55931;SDS011;41837;55.700;37.984;2022-09-17T16:40:31;12.52;;;5.47;;
55931;SDS011;41837;55.700;37.984;2022-09-17T16:43:01;16.33;;;7.47;;
55931;SDS011;41837;55.700;37.984;2022-09-17T16:45:27;20.17;;;11.35;;
55931;SDS011;41837;55.700;37.984;2022-09-17T16:47:53;20.67;;;8.30;;
55931;SDS011;41837;55.700;37.984;2022-09-17T16:50:19;12.15;;;5.88;;
55931;SDS011;41837;55.700;37.984;2022-09-17T16:52:45;11.15;;;5.75;;
55931;SDS011;41837;55.700;37.984;2022-09-17T16:55:12;13.82;;;7.70;;
55931;SDS011;41837;55.700;37.984;2022-09-17T16:57:38;18.42;;;8.10;;
55931;SDS011;41837;55.700;37.984;2022-09-17T17:00:05;17.90;;;9.25;;
55931;SDS011;41837;55.700;37.984;2022-09-17T17:02:33;25.02;;;10.98;;
55931;SDS011;41837;55.700;37.984;2022-09-17T17:04:58;23.42;;;14.07;;
55931;SDS011;41837;55.700;37.984;2022-09-17T17:07:24;29.75;;;16.88;;
55931;SDS011;41837;55.700;37.984;2022-09-17T17:09:50;32.40;;;16.85;;
55931;SDS011;41837;55.700;37.984;2022-09-17T17:12:16;25.42;;;16.60;;
55931;SDS011;41837;55.700;37.984;2022-09-17T17:14:42;29.00;;;15.73;;
55931;SDS011;41837;55.700;37.984;2022-09-17T17:17:15;31.85;;;17.88;;
55931;SDS011;41837;55.700;37.984;2022-09-17T17:19:42;31.92;;;20.05;;
55931;SDS011;41837;55.700;37.984;2022-09-17T17:22:08;34.88;;;18.40;;
55931;SDS011;41837;55.700;37.984;2022-09-17T17:24:33;29.23;;;18.13;;
55931;SDS011;41837;55.700;37.984;2022-09-17T17:27:00;30.20;;;17.92;;
55931;SDS011;41837;55.700;37.984;2022-09-17T17:29:26;28.40;;;16.17;;
55931;SDS011;41837;55.700;37.984;2022-09-17T17:31:52;30.90;;;17.05;;
55931;SDS011;41837;55.700;37.984;2022-09-17T17:34:18;32.97;;;16.15;;
55931;SDS011;41837;55.700;37.984;2022-09-17T17:36:47;29.05;;;17.77;;
55931;SDS011;41837;55.700;37.984;2022-09-17T17:39:13;38.58;;;17.48;;
55931;SDS011;41837;55.700;37.984;2022-09-17T17:41:39;49.20;;;26.25;;
55931;SDS011;41837;55.700;37.984;2022-09-17T17:44:05;42.42;;;25.23;;